Ghurian, Afghanistan
Current Conditions -  °F | °C
As of 1:55 PM on Saturday 22 Nov 2014 (Local Time) from OAHR Reporting Station
Clear Clear  
Wind Chill: 63°   Ceiling: Unl
Heat Index: 63°   Visibility: 6mi
Dew Point: 27°   Wind: 2mph
Humidity: 26%   Direction: 320°NW
Pressure: 30.12"   Gusts: NA
Location:  34.34°N, 61.47°E
Report Text: OAHR 220955Z 32002KT CAVOK 17/M03 Q1020 RMK SCT SCT200 VIS MIN 9999 BLU
Loading
Personal Weather Stations






























Interactive Weather Map New forecast layout! Learn more

10-Day Weather Forecast

Advertisements
Track Severe Weather on mobile